createdAt,value
2022-08-07T00:01:43.714Z,26.32
2022-08-07T00:04:06.230Z,26.25
2022-08-07T00:06:36.336Z,26.24
2022-08-07T00:09:16.267Z,26.23
2022-08-07T00:11:54.104Z,26.24
2022-08-07T00:14:25.362Z,26.23
2022-08-07T00:16:57.595Z,26.20
2022-08-07T00:19:26.176Z,26.17
2022-08-07T00:22:10.999Z,26.15
2022-08-07T00:24:38.824Z,26.11
2022-08-07T00:27:07.262Z,26.10
2022-08-07T00:29:37.030Z,26.09
2022-08-07T00:32:06.965Z,26.05
2022-08-07T00:34:35.630Z,25.99
2022-08-07T00:37:02.911Z,26.01
2022-08-07T00:39:32.395Z,25.98
2022-08-07T00:42:01.753Z,25.97
2022-08-07T00:44:29.587Z,25.93
2022-08-07T00:46:56.344Z,25.94
2022-08-07T00:49:24.843Z,25.89
2022-08-07T00:52:10.935Z,25.84
2022-08-07T00:54:40.619Z,25.85
2022-08-07T00:57:09.189Z,25.85
2022-08-07T00:59:37.664Z,25.80
2022-08-07T01:02:09.044Z,25.79
2022-08-07T01:04:58.211Z,25.75
2022-08-07T01:07:29.264Z,25.75
2022-08-07T01:10:06.322Z,25.78
2022-08-07T01:12:53.389Z,25.71
2022-08-07T01:15:23.252Z,25.57
2022-08-07T01:18:17.693Z,25.58
2022-08-07T01:20:57.351Z,25.52
2022-08-07T01:23:36.719Z,25.55
2022-08-07T01:26:12.368Z,25.56
2022-08-07T01:28:48.498Z,25.57
2022-08-07T01:31:19.000Z,25.53
2022-08-07T01:33:55.007Z,25.53
2022-08-07T01:36:33.179Z,25.40
2022-08-07T01:39:10.136Z,25.34
2022-08-07T01:41:40.836Z,25.30
2022-08-07T01:44:28.032Z,25.21
2022-08-07T01:46:57.788Z,25.00
2022-08-07T01:49:31.961Z,24.75
2022-08-07T01:52:04.921Z,24.79
2022-08-07T01:54:44.738Z,24.71
2022-08-07T01:57:25.905Z,24.76
2022-08-07T01:59:57.747Z,24.55
2022-08-07T02:03:11.640Z,24.42
2022-08-07T02:06:01.078Z,24.06
2022-08-07T02:08:45.252Z,24.01
2022-08-07T02:11:31.059Z,24.02
2022-08-07T02:14:08.570Z,23.83
2022-08-07T02:16:40.114Z,23.86
2022-08-07T02:20:05.280Z,23.79
2022-08-07T02:22:02.886Z,23.75
2022-08-07T02:24:38.380Z,23.36
2022-08-07T02:27:14.256Z,23.22
2022-08-07T02:29:53.921Z,23.30
2022-08-07T02:32:29.812Z,23.41
2022-08-07T02:35:01.613Z,23.41
2022-08-07T02:37:37.927Z,23.37
2022-08-07T02:40:34.874Z,23.45
2022-08-07T02:43:07.783Z,23.43
2022-08-07T02:46:00.764Z,23.23
2022-08-07T02:48:34.480Z,23.04
2022-08-07T02:51:28.866Z,22.95
2022-08-07T02:53:59.296Z,22.90
2022-08-07T02:56:32.080Z,23.18
2022-08-07T02:59:02.281Z,23.17
2022-08-07T03:01:35.283Z,23.07
2022-08-07T03:04:07.083Z,22.72
2022-08-07T03:06:35.408Z,22.63
2022-08-07T03:09:05.382Z,22.84
2022-08-07T03:11:38.939Z,22.82
2022-08-07T03:14:07.090Z,22.71
2022-08-07T03:16:35.713Z,22.69
2022-08-07T03:19:02.879Z,22.53
2022-08-07T03:21:33.000Z,22.21
2022-08-07T03:24:20.592Z,22.15
2022-08-07T03:26:57.978Z,22.31
2022-08-07T03:29:33.680Z,22.54
2022-08-07T03:32:13.230Z,22.57
2022-08-07T03:34:47.464Z,22.59
2022-08-07T03:37:32.776Z,22.30
2022-08-07T03:40:15.571Z,22.49
2022-08-07T03:42:43.762Z,22.72
2022-08-07T03:45:11.467Z,22.81
2022-08-07T03:47:45.010Z,22.92
2022-08-07T03:50:23.444Z,22.90
2022-08-07T03:52:52.973Z,22.68
2022-08-07T03:55:19.868Z,22.41
2022-08-07T03:59:06.776Z,22.53
2022-08-07T04:00:37.574Z,22.23
2022-08-07T04:03:13.306Z,22.32
2022-08-07T04:05:42.260Z,22.59
2022-08-07T04:08:12.577Z,22.37
2022-08-07T04:10:54.472Z,22.16
2022-08-07T04:14:10.859Z,22.18
2022-08-07T04:16:30.049Z,22.36
2022-08-07T04:19:01.745Z,22.39
2022-08-07T04:21:32.018Z,22.17
2022-08-07T04:24:07.908Z,22.52
2022-08-07T04:26:37.065Z,22.18
2022-08-07T04:29:04.000Z,22.26
2022-08-07T04:31:38.852Z,22.02
2022-08-07T04:34:24.251Z,22.13
2022-08-07T04:36:54.488Z,22.26
2022-08-07T04:39:25.881Z,22.49
2022-08-07T04:41:52.713Z,22.42
2022-08-07T04:44:20.885Z,22.57
2022-08-07T04:47:08.213Z,22.30
2022-08-07T04:49:41.529Z,22.26
2022-08-07T04:52:35.859Z,22.22
2022-08-07T04:58:15.616Z,22.38
2022-08-07T04:59:15.881Z,22.78
2022-08-07T05:01:51.325Z,22.56
2022-08-07T05:04:43.960Z,22.50
2022-08-07T05:07:20.975Z,22.74
2022-08-07T05:10:11.735Z,22.68
2022-08-07T05:12:46.172Z,22.75
2022-08-07T05:15:27.048Z,22.61
2022-08-07T05:18:09.264Z,22.52
2022-08-07T05:20:45.082Z,22.68
2022-08-07T05:23:16.551Z,22.64
2022-08-07T05:26:13.377Z,22.74
2022-08-07T05:28:35.056Z,22.76
2022-08-07T05:31:03.643Z,23.25
2022-08-07T05:33:35.505Z,23.37
2022-08-07T05:36:07.103Z,23.35
2022-08-07T05:38:59.873Z,23.56
2022-08-07T05:41:29.533Z,23.83
2022-08-07T05:44:29.671Z,23.54
2022-08-07T05:46:57.576Z,23.83
2022-08-07T05:49:27.802Z,24.12
2022-08-07T05:52:11.704Z,24.42
2022-08-07T05:54:53.575Z,23.98
2022-08-07T05:57:30.190Z,23.82
2022-08-07T06:00:01.433Z,23.79
2022-08-07T06:02:31.274Z,23.90
2022-08-07T06:05:03.343Z,23.95
2022-08-07T06:08:14.321Z,23.79
2022-08-07T06:10:18.505Z,23.85
2022-08-07T06:12:46.871Z,23.70
2022-08-07T06:15:16.417Z,23.99
2022-08-07T06:17:53.374Z,24.05
2022-08-07T06:20:31.804Z,23.78
2022-08-07T06:23:02.135Z,24.08
2022-08-07T06:25:54.712Z,24.22
2022-08-07T06:28:27.207Z,24.17
2022-08-07T06:30:55.774Z,23.83
2022-08-07T06:33:24.350Z,24.26
2022-08-07T06:36:06.414Z,24.19
2022-08-07T06:38:38.766Z,23.72
2022-08-07T06:41:58.794Z,23.84
2022-08-07T06:44:17.367Z,24.17
2022-08-07T06:46:53.591Z,24.01
2022-08-07T06:49:33.923Z,23.94
2022-08-07T06:52:31.575Z,24.16
2022-08-07T06:55:32.249Z,24.50
2022-08-07T06:57:59.223Z,24.53
2022-08-07T07:00:31.066Z,24.23
2022-08-07T07:03:00.788Z,24.25
2022-08-07T07:06:03.514Z,24.37
2022-08-07T07:08:26.712Z,24.99
2022-08-07T07:10:56.757Z,24.55
2022-08-07T07:13:57.949Z,24.40
2022-08-07T07:16:49.846Z,24.39
2022-08-07T07:19:55.799Z,24.52
2022-08-07T07:22:35.710Z,24.87
2022-08-07T07:26:30.862Z,25.12
2022-08-07T07:28:42.337Z,25.20
2022-08-07T07:31:05.510Z,24.88
2022-08-07T07:33:37.644Z,24.88
2022-08-07T07:36:12.725Z,25.27
2022-08-07T07:38:47.634Z,25.78
2022-08-07T07:41:17.931Z,26.00
2022-08-07T07:44:16.949Z,25.47
2022-08-07T07:46:56.044Z,25.84
2022-08-07T07:50:36.041Z,26.16
2022-08-07T07:52:18.145Z,26.53
2022-08-07T07:54:51.508Z,26.11
2022-08-07T07:57:29.069Z,26.62
2022-08-07T08:00:28.901Z,26.41
2022-08-07T08:03:05.259Z,26.22
2022-08-07T08:05:51.135Z,26.10
2022-08-07T08:08:36.348Z,26.14
2022-08-07T08:11:08.549Z,26.44
2022-08-07T08:13:53.951Z,26.63
2022-08-07T08:16:35.117Z,26.66
2022-08-07T08:19:09.812Z,26.53
2022-08-07T08:22:11.644Z,26.83
2022-08-07T08:25:09.568Z,26.66
2022-08-07T08:27:56.806Z,26.95
2022-08-07T08:30:28.215Z,27.08
2022-08-07T08:32:58.833Z,27.79
2022-08-07T08:35:28.796Z,27.51
2022-08-07T08:38:08.924Z,28.11
2022-08-07T08:40:46.829Z,28.32
2022-08-07T08:43:41.979Z,28.10
2022-08-07T08:46:49.175Z,27.32
2022-08-07T08:50:02.143Z,28.00
2022-08-07T08:52:36.089Z,28.18
2022-08-07T08:55:55.284Z,28.18
2022-08-07T08:58:20.267Z,28.31
2022-08-07T09:01:14.605Z,27.88
2022-08-07T09:04:11.061Z,27.86
2022-08-07T09:06:50.302Z,27.56
2022-08-07T09:09:47.502Z,27.64
2022-08-07T09:12:33.130Z,28.09
2022-08-07T09:16:20.036Z,28.33
2022-08-07T09:18:15.689Z,28.74
2022-08-07T09:21:06.076Z,29.11
2022-08-07T09:24:32.048Z,28.13
2022-08-07T09:27:23.771Z,28.68
2022-08-07T09:30:08.013Z,29.16
2022-08-07T09:32:47.771Z,29.53
2022-08-07T09:36:01.148Z,29.88
2022-08-07T09:38:50.261Z,29.63
2022-08-07T09:41:59.045Z,30.41
2022-08-07T09:47:20.037Z,30.76
2022-08-07T09:48:15.445Z,30.05
2022-08-07T09:51:05.450Z,29.82
2022-08-07T09:54:02.359Z,30.39
2022-08-07T09:56:37.296Z,30.07
2022-08-07T09:59:28.135Z,30.00
2022-08-07T10:02:16.225Z,30.34
2022-08-07T10:04:46.191Z,30.31
2022-08-07T10:07:26.212Z,30.09
2022-08-07T10:10:23.847Z,30.00
2022-08-07T10:13:15.751Z,30.91
2022-08-07T10:16:14.721Z,30.73
2022-08-07T10:19:01.228Z,30.76
2022-08-07T10:22:15.583Z,30.91
2022-08-07T10:24:58.063Z,31.35
2022-08-07T10:27:46.252Z,31.42
2022-08-07T10:30:20.125Z,32.39
2022-08-07T10:33:14.924Z,31.71
2022-08-07T10:36:14.596Z,31.59
2022-08-07T10:38:51.226Z,32.07
2022-08-07T10:41:53.169Z,32.15
2022-08-07T10:44:37.625Z,32.42
2022-08-07T10:47:53.848Z,32.45
2022-08-07T10:50:44.846Z,32.31
2022-08-07T10:53:44.326Z,32.29
2022-08-07T10:56:31.789Z,32.46
2022-08-07T10:59:21.689Z,32.55
2022-08-07T11:01:51.344Z,31.95
2022-08-07T11:05:07.317Z,32.28
2022-08-07T11:08:00.284Z,32.50
2022-08-07T11:10:34.863Z,32.68
2022-08-07T11:14:41.994Z,32.83
2022-08-07T11:34:29.320Z,32.77
2022-08-07T11:37:03.097Z,32.77
2022-08-07T11:40:00.462Z,32.98
2022-08-07T11:42:43.889Z,33.40
2022-08-07T11:45:49.956Z,33.48
2022-08-07T11:48:53.820Z,34.02
2022-08-07T11:51:41.717Z,34.78
2022-08-07T11:54:26.741Z,34.79
2022-08-07T11:57:12.712Z,34.59
2022-08-07T12:00:11.639Z,33.83
2022-08-07T12:02:57.923Z,33.80
2022-08-07T12:05:48.936Z,34.13
2022-08-07T12:08:35.028Z,34.22
2022-08-07T12:12:09.414Z,33.68
2022-08-07T12:14:37.102Z,34.03
2022-08-07T12:17:20.486Z,34.60
2022-08-07T12:20:03.914Z,34.05
2022-08-07T12:22:56.170Z,34.21
2022-08-07T12:26:22.450Z,33.63
2022-08-07T12:28:56.354Z,34.27
2022-08-07T12:31:52.329Z,34.49
2022-08-07T12:34:21.452Z,34.25
2022-08-07T12:36:51.240Z,34.74
2022-08-07T12:39:43.051Z,35.28
2022-08-07T12:42:13.125Z,34.79
2022-08-07T12:44:45.423Z,35.31
2022-08-07T12:47:31.091Z,35.58
2022-08-07T12:50:33.785Z,34.89
2022-08-07T12:53:22.426Z,35.28
2022-08-07T12:56:02.990Z,35.10
2022-08-07T12:58:37.571Z,35.32
2022-08-07T13:01:08.946Z,35.26
2022-08-07T13:04:02.364Z,34.65
2022-08-07T13:07:01.347Z,34.96
2022-08-07T13:10:36.734Z,35.13
2022-08-07T13:12:39.544Z,35.33
2022-08-07T13:15:39.179Z,36.01
2022-08-07T13:18:34.237Z,34.13
2022-08-07T13:21:09.655Z,34.69
2022-08-07T13:24:01.872Z,35.14
2022-08-07T13:26:33.899Z,34.56
2022-08-07T13:29:24.512Z,35.30
2022-08-07T13:32:23.689Z,35.83
2022-08-07T13:35:00.424Z,36.10
2022-08-07T13:37:59.144Z,36.59
2022-08-07T13:40:35.322Z,36.67
2022-08-07T13:43:13.254Z,37.41
2022-08-07T13:46:11.254Z,36.57
2022-08-07T13:48:35.037Z,36.10
2022-08-07T13:51:27.139Z,36.02
2022-08-07T13:54:00.874Z,36.45
2022-08-07T13:56:35.040Z,36.97
2022-08-07T13:59:12.724Z,37.36
2022-08-07T14:02:03.606Z,37.02
2022-08-07T14:04:36.075Z,36.96
2022-08-07T14:07:09.516Z,37.29
2022-08-07T14:10:12.007Z,37.23
2022-08-07T14:12:31.137Z,37.47
2022-08-07T14:15:08.871Z,37.89
2022-08-07T14:18:24.513Z,38.56
2022-08-07T14:20:40.965Z,36.06
2022-08-07T14:23:59.347Z,36.79
2022-08-07T14:26:28.326Z,36.10
2022-08-07T14:29:04.438Z,35.39
2022-08-07T14:34:29.524Z,37.59
2022-08-07T14:37:02.000Z,37.61
2022-08-07T14:40:17.707Z,37.61
2022-08-07T14:42:31.229Z,37.33
2022-08-07T14:45:21.457Z,37.04
2022-08-07T14:47:51.231Z,37.36
2022-08-07T14:50:22.630Z,37.72
2022-08-07T14:52:52.985Z,38.33
2022-08-07T14:55:20.594Z,37.93
2022-08-07T15:00:41.053Z,37.06
2022-08-07T15:06:04.298Z,36.39
2022-08-07T15:11:50.790Z,34.48
2022-08-07T15:17:16.690Z,34.22
2022-08-07T15:20:30.959Z,34.90
2022-08-07T15:22:53.744Z,35.15
2022-08-07T15:25:36.952Z,35.39
2022-08-07T15:28:34.764Z,33.95
2022-08-07T15:31:04.738Z,34.92
2022-08-07T15:33:36.355Z,35.63
2022-08-07T15:36:07.904Z,36.41
2022-08-07T15:38:51.315Z,36.88
2022-08-07T15:42:45.155Z,36.56
2022-08-07T15:44:18.900Z,36.46
2022-08-07T15:46:53.131Z,36.32
2022-08-07T15:50:04.363Z,35.69
2022-08-07T15:52:17.241Z,36.06
2022-08-07T15:54:49.604Z,36.09
2022-08-07T15:57:28.282Z,36.47
2022-08-07T16:00:08.256Z,36.17
2022-08-07T16:02:47.137Z,35.86
2022-08-07T16:05:20.067Z,36.09
2022-08-07T16:08:32.778Z,36.17
2022-08-07T16:10:48.495Z,36.26
2022-08-07T16:13:58.855Z,36.00
2022-08-07T16:16:48.541Z,35.76
2022-08-07T16:19:59.072Z,35.71
2022-08-07T16:22:33.683Z,35.91
2022-08-07T16:25:52.326Z,35.66
2022-08-07T16:30:06.460Z,35.08
2022-08-07T16:31:25.208Z,35.21
2022-08-07T16:34:49.976Z,35.04
2022-08-07T16:38:06.046Z,34.63
2022-08-07T16:40:28.789Z,34.73
2022-08-07T16:43:15.642Z,34.73
2022-08-07T16:46:33.209Z,34.63
2022-08-07T16:50:27.053Z,34.26
2022-08-07T16:52:51.850Z,33.84
2022-08-07T16:55:47.417Z,33.65
2022-08-07T16:58:33.711Z,33.38
2022-08-07T17:01:34.261Z,33.30
2022-08-07T17:04:12.523Z,33.41
2022-08-07T17:07:09.182Z,33.24
2022-08-07T17:10:06.649Z,33.10
2022-08-07T17:12:53.094Z,32.59
2022-08-07T17:15:28.869Z,32.24
2022-08-07T17:18:26.205Z,32.01
2022-08-07T17:20:53.909Z,31.80
2022-08-07T17:23:39.888Z,31.52
2022-08-07T17:26:23.466Z,31.32
2022-08-07T17:30:14.322Z,31.11
2022-08-07T17:32:31.260Z,30.92
2022-08-07T17:35:51.776Z,30.89
2022-08-07T17:38:39.696Z,30.80
2022-08-07T17:42:04.655Z,30.68
2022-08-07T17:44:41.470Z,30.51
2022-08-07T17:47:16.606Z,30.40
2022-08-07T17:50:03.272Z,30.25
2022-08-07T17:52:39.898Z,30.17
2022-08-07T17:56:01.195Z,30.06
2022-08-07T17:58:30.750Z,29.99
2022-08-07T18:01:02.872Z,29.94
2022-08-07T18:04:07.384Z,29.85
2022-08-07T18:07:19.608Z,29.81
2022-08-07T18:10:06.725Z,29.77
2022-08-07T18:13:06.784Z,29.65
2022-08-07T18:15:54.896Z,29.61
2022-08-07T18:18:45.479Z,29.53
2022-08-07T18:21:57.874Z,29.44
2022-08-07T18:24:37.311Z,29.41
2022-08-07T18:27:39.317Z,29.39
2022-08-07T18:30:32.583Z,29.30
2022-08-07T18:33:12.015Z,29.29
2022-08-07T18:35:57.541Z,29.22
2022-08-07T18:38:58.809Z,29.19
2022-08-07T18:42:05.224Z,29.14
2022-08-07T18:45:43.376Z,29.10
2022-08-07T18:47:45.356Z,29.01
2022-08-07T18:50:43.905Z,28.95
2022-08-07T18:53:22.023Z,28.85
2022-08-07T18:56:34.967Z,28.78
2022-08-07T18:59:47.186Z,28.73
2022-08-07T19:02:58.913Z,28.67
2022-08-07T19:06:02.596Z,28.62
2022-08-07T19:08:55.734Z,28.55
2022-08-07T19:12:04.239Z,28.49
2022-08-07T19:14:52.959Z,28.39
2022-08-07T19:17:58.854Z,28.35
2022-08-07T19:20:28.999Z,28.31
2022-08-07T19:23:18.924Z,28.24
2022-08-07T19:26:25.249Z,28.19
2022-08-07T19:30:54.518Z,28.13
2022-08-07T19:32:01.172Z,28.04
2022-08-07T19:34:34.001Z,27.96
2022-08-07T19:37:10.177Z,27.90
2022-08-07T19:39:57.350Z,27.86
2022-08-07T19:42:31.138Z,27.80
2022-08-07T19:45:09.477Z,27.78
2022-08-07T19:47:42.127Z,27.73
2022-08-07T19:50:44.414Z,27.71
2022-08-07T19:52:58.924Z,27.66
2022-08-07T19:55:56.525Z,27.60
2022-08-07T19:58:18.519Z,27.53
2022-08-07T20:00:57.203Z,27.52
2022-08-07T20:03:34.468Z,27.50
2022-08-07T20:06:06.360Z,27.49
2022-08-07T20:08:50.709Z,27.46
2022-08-07T20:11:23.273Z,27.43
2022-08-07T20:14:13.759Z,27.35
2022-08-07T20:16:48.249Z,27.33
2022-08-07T20:19:23.925Z,27.28
2022-08-07T20:21:57.034Z,27.22
2022-08-07T20:24:32.647Z,27.20
2022-08-07T20:27:02.437Z,27.16
2022-08-07T20:29:48.401Z,27.13
2022-08-07T20:32:40.388Z,27.12
2022-08-07T20:35:26.243Z,27.12
2022-08-07T20:37:58.756Z,27.05
2022-08-07T20:40:33.453Z,26.99
2022-08-07T20:43:03.190Z,26.96
2022-08-07T20:46:26.477Z,26.90
2022-08-07T20:48:30.088Z,26.87
2022-08-07T20:51:03.076Z,26.85
2022-08-07T20:54:02.159Z,26.81
2022-08-07T20:56:29.394Z,26.78
2022-08-07T20:58:58.833Z,26.73
2022-08-07T21:01:36.613Z,26.72
2022-08-07T21:04:22.162Z,26.70
2022-08-07T21:06:53.383Z,26.66
2022-08-07T21:09:24.361Z,26.69
2022-08-07T21:11:57.233Z,26.65
2022-08-07T21:14:32.038Z,26.64
2022-08-07T21:18:02.256Z,26.61
2022-08-07T21:20:05.129Z,26.60
2022-08-07T21:22:39.511Z,26.56
2022-08-07T21:25:29.117Z,26.54
2022-08-07T21:28:16.792Z,26.49
2022-08-07T21:32:10.823Z,26.46
2022-08-07T21:34:46.025Z,26.41
2022-08-07T21:37:59.640Z,26.35
2022-08-07T21:40:57.480Z,26.28
2022-08-07T21:43:47.338Z,26.25
2022-08-07T21:46:48.111Z,26.24
2022-08-07T21:50:01.890Z,26.16
2022-08-07T21:52:57.927Z,26.11
2022-08-07T21:55:30.892Z,26.09
2022-08-07T21:58:12.173Z,26.05
2022-08-07T22:00:54.202Z,26.00
2022-08-07T22:03:36.014Z,25.94
2022-08-07T22:06:30.259Z,25.90
2022-08-07T22:09:01.446Z,25.87
2022-08-07T22:11:53.120Z,25.83
2022-08-07T22:14:36.607Z,25.81
2022-08-07T22:17:05.900Z,25.81
2022-08-07T22:19:41.408Z,25.76
2022-08-07T22:22:20.811Z,25.65
2022-08-07T22:25:07.548Z,25.55
2022-08-07T22:28:07.372Z,25.50
2022-08-07T22:30:57.355Z,25.44
2022-08-07T22:33:56.408Z,25.40
2022-08-07T22:36:52.600Z,25.37
2022-08-07T22:39:53.003Z,25.33
2022-08-07T22:42:25.577Z,25.32
2022-08-07T22:46:04.326Z,25.30
2022-08-07T22:48:31.480Z,25.24
2022-08-07T22:51:24.374Z,25.23
2022-08-07T22:54:12.043Z,25.23
2022-08-07T22:56:42.630Z,25.24
2022-08-07T22:59:34.655Z,25.22
2022-08-07T23:02:18.300Z,25.17
2022-08-07T23:06:08.709Z,25.14
2022-08-07T23:08:46.269Z,25.03
2022-08-07T23:11:41.186Z,25.06
2022-08-07T23:14:47.550Z,25.43
2022-08-07T23:17:26.857Z,25.58
2022-08-07T23:20:51.560Z,25.65
2022-08-07T23:24:06.215Z,25.66
2022-08-07T23:26:28.356Z,25.51
2022-08-07T23:30:36.345Z,25.57
2022-08-07T23:34:22.816Z,25.58
2022-08-07T23:36:10.622Z,25.64
2022-08-07T23:39:16.035Z,25.41
2022-08-07T23:42:15.610Z,25.35
2022-08-07T23:45:07.317Z,25.29
2022-08-07T23:48:20.655Z,25.31
2022-08-07T23:52:58.942Z,25.36
2022-08-07T23:54:44.057Z,25.37
2022-08-07T23:57:35.396Z,25.38
